MST,Max TemperatureF,Mean TemperatureF,Min TemperatureF,Max Dew PointF,MeanDew PointF,Min DewpointF,Max Humidity, Mean Humidity, Min Humidity, Max Sea Level PressureIn, Mean Sea Level PressureIn, Min Sea Level PressureIn, Max VisibilityMiles, Mean VisibilityMiles, Min VisibilityMiles, Max Wind SpeedMPH, Mean Wind SpeedMPH, Max Gust SpeedMPH,PrecipitationIn, CloudCover, Events, WindDirDegrees
2013-2-1,41,34,27,29,27,21,88,74,55,30.46,30.33,30.25,10,9,6,8,4,,0.00,4,,187
2013-2-2,33,24,15,25,21,12,100,83,69,30.57,30.47,30.36,10,6,0,8,3,,0.00,0,Fog,263
2013-2-3,30,26,21,25,20,16,100,85,69,30.43,30.29,30.18,4,1,0,8,2,,0.00,4,Fog,293
2013-2-4,30,24,19,22,19,16,93,83,72,30.33,30.25,30.16,4,2,0,9,2,,0.00,6,Fog-Snow,269
2013-2-5,32,26,19,25,20,14,100,85,75,30.24,30.08,29.93,4,2,0,12,3,,0.00,4,Fog,271
2013-2-6,30,26,23,26,23,19,100,91,79,30.27,30.10,29.94,5,2,0,7,3,,0.00,5,Fog,206
2013-2-7,30,24,19,22,18,14,85,78,66,30.26,30.13,29.93,6,3,0,8,2,,0.00,0,Fog,307
2013-2-8,39,29,19,30,24,14,100,86,57,29.90,29.72,29.65,10,4,0,20,4,30,0.06,4,Fog-Snow,196
2013-2-9,30,28,26,28,26,23,96,88,75,29.89,29.73,29.66,10,4,1,13,6,,0.01,8,Snow,196
2013-2-10,28,24,17,25,23,15,100,90,74,30.10,29.91,29.84,10,5,2,10,3,,0.01,8,Snow,236
2013-2-11,27,18,10,18,12,8,88,72,55,30.35,30.21,30.09,10,10,10,7,3,,0.00,3,,289
2013-2-12,28,21,14,19,14,10,84,69,53,30.45,30.41,30.34,10,9,5,8,3,,0.00,8,,184
2013-2-13,34,28,23,25,21,17,85,74,64,30.42,30.35,30.28,10,6,3,9,2,,0.00,8,,186
2013-2-14,36,31,26,25,24,21,86,75,61,30.47,30.38,30.27,10,7,2,6,2,,0.00,4,,230
2013-2-15,37,30,23,26,23,18,89,78,59,30.58,30.54,30.47,10,6,3,8,3,,0.00,4,,219
2013-2-16,34,28,21,25,20,16,81,74,66,30.52,30.34,30.05,10,7,3,9,5,,0.00,0,,219
2013-2-17,34,28,21,26,21,19,96,82,54,30.13,29.98,29.88,10,4,0,13,4,,0.00,3,Fog,231
2013-2-18,36,27,18,21,16,12,82,69,44,30.19,30.12,29.96,10,10,9,9,6,,0.00,0,,190
2013-2-19,37,28,19,22,17,10,75,59,42,29.93,29.73,29.58,10,10,10,9,6,,0.00,1,,241
2013-2-20,39,34,28,28,25,19,93,72,50,29.80,29.66,29.56,10,8,1,16,8,23,0.00,8,Snow,334
2013-2-21,32,29,24,23,20,16,85,69,54,30.08,29.96,29.81,10,10,3,10,5,,0.00,6,Snow,301
2013-2-22,32,28,24,25,21,16,93,77,56,30.18,30.09,30.02,10,6,0,12,6,,0.05,7,Fog-Snow,186
2013-2-23,35,28,19,27,22,18,96,83,54,30.04,29.89,29.72,10,3,0,18,10,25,0.47,8,Fog-Snow,266
2013-2-24,30,22,15,19,14,7,93,73,51,30.36,30.17,29.97,10,8,1,9,5,,0.00,1,,218
2013-2-25,30,21,12,19,12,5,75,64,47,30.35,30.22,30.09,10,10,10,12,8,,0.00,2,,177
2013-2-26,30,24,19,23,19,10,96,77,56,30.40,30.20,30.03,10,7,1,12,4,,0.00,3,Snow,290
2013-2-27,33,22,12,17,12,6,74,63,48,30.51,30.49,30.41,10,10,10,10,6,,0.00,0,,203
2013-2-28,37,27,17,24,15,8,73,62,46,30.53,30.51,30.47,10,10,9,10,5,,0.00,5,,225